Time;durP1;ratioP1;P1;durP2;ratioP2;P2;SDS_P1;SDS_P2;PMS_P1;PMS_P2;Temp;Humidity;BMP_temperature;BMP_pressure;BME280_temperature;BME280_humidity;BME280_pressure;Samples;Min_cycle;Max_cycle;Signal;HPM_P1;HPM_P2
2023/11/09 00:00:05;;;;;;;18.00;10.40;;;;;;;9.90;79.22;101168.83;107533;1253;99168;-64
2023/11/09 00:02:34;;;;;;;17.60;10.20;;;;;;;9.87;79.51;101171.52;107659;1251;99170;-62
2023/11/09 00:05:03;;;;;;;17.90;10.80;;;;;;;9.85;79.68;101172.61;107605;1251;112386;-62
2023/11/09 00:07:32;;;;;;;20.50;10.20;;;;;;;9.86;79.71;101179.88;107602;1251;108932;-63
2023/11/09 00:10:02;;;;;;;25.80;10.70;;;;;;;9.84;79.79;101179.14;107572;1251;107195;-62
2023/11/09 00:12:32;;;;;;;13.90;9.80;;;;;;;9.82;79.96;101183.42;107478;1251;99185;-64
2023/11/09 00:15:00;;;;;;;16.90;10.30;;;;;;;9.77;79.87;101185.59;107597;1251;99861;-62
2023/11/09 00:17:29;;;;;;;16.40;9.80;;;;;;;9.72;79.90;101187.58;107641;1251;111954;-62
2023/11/09 00:19:57;;;;;;;19.90;11.00;;;;;;;9.68;80.15;101190.18;107627;1251;110255;-63
2023/11/09 00:22:25;;;;;;;16.00;10.40;;;;;;;9.69;80.16;101186.02;107642;1249;106957;-63
2023/11/09 00:24:53;;;;;;;15.20;9.40;;;;;;;9.68;80.32;101191.70;107598;1251;99161;-63
2023/11/09 00:27:21;;;;;;;15.50;9.80;;;;;;;9.66;80.38;101191.81;107537;1252;99064;-62
2023/11/09 00:29:50;;;;;;;19.10;9.90;;;;;;;9.63;80.32;101197.23;107587;1253;113247;-62
2023/11/09 00:32:18;;;;;;;14.70;9.70;;;;;;;9.60;80.26;101198.57;107572;1253;109512;-62
2023/11/09 00:34:47;;;;;;;18.20;9.70;;;;;;;9.58;80.44;101200.69;107556;1251;108714;-62
2023/11/09 00:37:16;;;;;;;19.90;9.30;;;;;;;9.58;80.41;101201.23;107618;1251;99288;-63
2023/11/09 00:39:45;;;;;;;20.60;9.10;;;;;;;9.62;80.36;101199.35;107633;1251;99065;-63
2023/11/09 00:42:15;;;;;;;12.50;9.00;;;;;;;9.60;80.33;101202.13;107442;1250;112553;-62
2023/11/09 00:44:43;;;;;;;18.20;9.00;;;;;;;9.58;80.40;101200.90;107594;1251;109753;-62
2023/11/09 00:47:11;;;;;;;13.70;8.70;;;;;;;9.56;80.30;101201.00;107498;1254;108595;-63
2023/11/09 00:49:40;;;;;;;14.70;8.40;;;;;;;9.61;80.18;101204.91;107500;1253;99170;-63
2023/11/09 00:52:08;;;;;;;16.20;8.00;;;;;;;9.59;79.85;101203.67;107633;1251;99737;-64
2023/11/09 00:54:36;;;;;;;16.00;7.20;;;;;;;9.56;79.65;101203.54;107665;1251;112589;-63
2023/11/09 00:57:04;;;;;;;12.90;7.90;;;;;;;9.53;79.66;101204.48;107619;1251;107754;-63
2023/11/09 00:59:32;;;;;;;11.60;7.30;;;;;;;9.52;79.53;101204.88;107574;1253;107281;-63
2023/11/09 01:02:01;;;;;;;13.60;8.00;;;;;;;9.53;79.52;101207.50;107615;1255;99179;-62
2023/11/09 01:04:29;;;;;;;12.20;7.30;;;;;;;9.50;79.28;101212.23;107429;1252;99711;-62
2023/11/09 01:06:57;;;;;;;17.30;8.30;;;;;;;9.49;79.38;101210.48;107640;1253;112819;-62
2023/11/09 01:09:26;;;;;;;15.10;7.60;;;;;;;9.47;79.36;101215.88;107544;1251;109989;-62
2023/11/09 01:11:55;;;;;;;15.40;8.10;;;;;;;9.44;79.46;101223.42;107609;1255;108894;-61
2023/11/09 01:14:23;;;;;;;14.00;7.30;;;;;;;9.42;79.50;101224.83;107623;1251;99205;-63
2023/11/09 01:16:51;;;;;;;12.00;7.50;;;;;;;9.41;79.46;101224.00;107596;1251;99175;-64
2023/11/09 01:19:19;;;;;;;12.90;7.10;;;;;;;9.42;79.55;101232.77;107560;1251;112758;-62
2023/11/09 01:21:47;;;;;;;13.80;7.00;;;;;;;9.40;79.55;101235.52;107667;1254;109308;-63
2023/11/09 01:24:18;;;;;;;12.40;7.10;;;;;;;9.35;79.68;101238.27;107519;1253;108302;-62
2023/11/09 01:26:46;;;;;;;12.20;6.70;;;;;;;9.30;79.84;101243.81;107574;1251;99169;-64
2023/11/09 01:29:15;;;;;;;15.40;7.40;;;;;;;9.24;80.17;101243.05;107576;1251;99169;-63
2023/11/09 01:31:43;;;;;;;11.40;6.40;;;;;;;9.20;80.31;101242.97;107602;1251;112956;-65
2023/11/09 01:34:12;;;;;;;10.50;6.30;;;;;;;9.20;80.29;101245.41;107545;1250;109703;-61
2023/11/09 01:36:43;;;;;;;10.10;6.50;;;;;;;9.22;80.60;101245.09;107526;1252;107836;-62
2023/11/09 01:39:14;;;;;;;10.50;6.40;;;;;;;9.23;80.51;101250.06;107393;1252;99223;-62
2023/11/09 01:41:45;;;;;;;10.70;6.00;;;;;;;9.26;80.57;101248.61;107625;1251;99199;-63
2023/11/09 01:44:13;;;;;;;13.50;6.90;;;;;;;9.23;80.60;101251.67;107662;1251;113627;-63
2023/11/09 01:46:44;;;;;;;6.70;5.70;;;;;;;9.21;80.75;101254.14;107593;1251;109806;-62
2023/11/09 01:49:13;;;;;;;10.50;6.00;;;;;;;9.17;80.76;101256.21;107584;1251;108312;-63
2023/11/09 01:51:43;;;;;;;8.50;5.80;;;;;;;9.15;80.90;101262.49;107478;1256;99116;-64
2023/11/09 01:54:12;;;;;;;10.90;5.70;;;;;;;9.11;80.95;101267.98;107598;1254;99321;-64
2023/11/09 01:56:40;;;;;;;8.60;5.20;;;;;;;9.04;81.44;101267.17;107571;1252;112541;-62
2023/11/09 01:59:11;;;;;;;9.40;5.50;;;;;;;9.01;81.47;101271.19;107465;1253;109312;-63
2023/11/09 02:01:41;;;;;;;6.60;4.90;;;;;;;8.96;81.69;101273.90;107457;1252;109271;-62
2023/11/09 02:04:09;;;;;;;9.50;4.80;;;;;;;8.86;82.13;101277.10;107604;1253;99771;-62
2023/11/09 02:06:39;;;;;;;9.00;5.10;;;;;;;8.82;82.12;101282.77;107448;1252;99849;-64
2023/11/09 02:09:08;;;;;;;8.50;4.80;;;;;;;8.78;82.30;101285.17;107604;1252;112895;-64
2023/11/09 02:11:36;;;;;;;9.30;5.40;;;;;;;8.76;82.55;101285.68;107624;1253;108229;-62
2023/11/09 02:14:05;;;;;;;10.50;4.80;;;;;;;8.77;82.57;101290.11;107598;1253;108192;-60
2023/11/09 02:16:34;;;;;;;7.10;4.90;;;;;;;8.80;82.58;101285.97;107489;1251;99292;-63
2023/11/09 02:19:03;;;;;;;7.60;4.70;;;;;;;8.81;82.53;101290.95;107523;1253;99076;-63
2023/11/09 02:21:33;;;;;;;5.40;4.00;;;;;;;8.77;82.40;101294.20;107517;1252;112180;-63
2023/11/09 02:24:10;;;;;;;6.00;4.30;;;;;;;8.75;82.29;101298.48;107503;1253;109072;-63
2023/11/09 02:26:40;;;;;;;8.90;4.20;;;;;;;8.78;82.34;101299.16;107437;1253;108235;-63
2023/11/09 02:29:08;;;;;;;5.20;3.60;;;;;;;8.79;82.08;101299.11;107620;1250;99080;-62
2023/11/09 02:31:36;;;;;;;6.90;3.60;;;;;;;8.75;82.18;101297.91;107635;1253;99057;-63
2023/11/09 02:34:09;;;;;;;8.30;4.10;;;;;;;8.76;82.26;101303.96;107499;1256;113320;-62
2023/11/09 02:36:37;;;;;;;5.50;3.40;;;;;;;8.74;82.22;101308.16;107588;1253;109176;-62
2023/11/09 02:39:06;;;;;;;4.40;3.50;;;;;;;8.73;82.25;101310.44;107524;1253;107964;-62
2023/11/09 02:41:34;;;;;;;5.10;3.10;;;;;;;8.67;82.00;101315.37;107466;1253;99243;-62
2023/11/09 02:44:02;;;;;;;5.30;3.60;;;;;;;8.61;81.93;101319.69;107500;1252;99244;-62
2023/11/09 02:46:31;;;;;;;5.50;2.90;;;;;;;8.60;82.14;101326.54;107452;1251;112900;-62
2023/11/09 02:48:59;;;;;;;5.30;3.10;;;;;;;8.63;82.07;101325.09;107567;1251;110408;-62
2023/11/09 02:51:28;;;;;;;6.00;2.50;;;;;;;8.67;82.31;101335.16;107473;1253;107659;-62
2023/11/09 02:53:56;;;;;;;6.20;2.70;;;;;;;8.65;82.18;101334.42;107597;1252;99185;-63
2023/11/09 02:56:25;;;;;;;4.40;3.00;;;;;;;8.61;82.10;101339.55;107631;1251;99071;-63
2023/11/09 02:58:54;;;;;;;5.10;2.90;;;;;;;8.59;82.18;101335.77;107627;1251;112887;-63
2023/11/09 03:01:22;;;;;;;6.90;3.10;;;;;;;8.59;82.20;101343.44;107592;1251;111585;-62
2023/11/09 03:03:52;;;;;;;6.40;3.20;;;;;;;8.57;82.22;101345.55;107480;1251;107903;-62
2023/11/09 03:06:20;;;;;;;9.90;3.20;;;;;;;8.53;82.61;101346.89;107579;1251;99174;-62
2023/11/09 03:08:49;;;;;;;5.40;3.40;;;;;;;8.44;83.42;101350.90;107640;1251;99069;-62
2023/11/09 03:11:18;;;;;;;10.30;4.70;;;;;;;8.34;83.76;101347.13;107596;1251;111883;-63
2023/11/09 03:13:47;;;;;;;8.00;4.20;;;;;;;8.28;84.06;101346.11;107478;1253;109956;-62
2023/11/09 03:16:15;;;;;;;7.10;4.70;;;;;;;8.27;84.17;101350.78;107638;1253;107777;-61
2023/11/09 03:18:44;;;;;;;7.50;5.20;;;;;;;8.24;84.25;101354.45;107579;1253;99164;-63
2023/11/09 03:21:13;;;;;;;7.80;4.60;;;;;;;8.18;85.09;101357.15;107621;1252;99805;-62
2023/11/09 03:23:43;;;;;;;8.60;6.40;;;;;;;8.11;85.13;101360.15;107564;1255;112773;-63
2023/11/09 03:26:11;;;;;;;8.60;5.30;;;;;;;8.05;85.45;101366.79;107582;1251;108934;-61
2023/11/09 03:28:40;;;;;;;9.90;6.00;;;;;;;8.03;85.92;101367.33;107556;1253;107945;-63
2023/11/09 03:31:11;;;;;;;8.40;5.50;;;;;;;8.04;85.96;101371.52;107681;1249;99208;-62
2023/11/09 03:33:40;;;;;;;11.90;6.20;;;;;;;8.02;86.43;101374.48;107518;1253;99144;-63
2023/11/09 03:36:09;;;;;;;8.90;5.50;;;;;;;7.99;86.41;101375.95;107407;1256;113232;-63
2023/11/09 03:38:38;;;;;;;10.70;6.70;;;;;;;7.97;86.18;101376.83;107586;1253;109999;-62
2023/11/09 03:41:10;;;;;;;12.60;7.10;;;;;;;7.94;86.75;101373.80;107592;1255;108695;-64
2023/11/09 03:43:39;;;;;;;12.90;6.70;;;;;;;7.93;86.43;101378.15;107599;1251;99189;-63
2023/11/09 03:46:13;;;;;;;9.30;5.90;;;;;;;7.96;86.12;101377.04;107576;1252;99031;-63
2023/11/09 03:48:42;;;;;;;10.10;5.20;;;;;;;8.02;86.29;101378.99;107580;1253;111988;-61
2023/11/09 03:51:10;;;;;;;9.20;5.80;;;;;;;8.01;86.19;101375.82;107525;1253;109527;-63
2023/11/09 03:53:40;;;;;;;9.60;6.20;;;;;;;7.96;86.71;101375.59;107597;1253;107038;-62
2023/11/09 03:56:08;;;;;;;11.90;5.50;;;;;;;7.93;86.71;101373.48;107550;1253;99190;-62
2023/11/09 03:58:36;;;;;;;7.60;5.80;;;;;;;7.92;86.42;101374.67;107677;1251;99294;-63
2023/11/09 04:01:05;;;;;;;10.20;5.40;;;;;;;7.93;86.40;101373.01;107554;1252;112206;-63
2023/11/09 04:03:33;;;;;;;9.20;5.40;;;;;;;7.93;86.55;101377.08;107560;1253;108429;-63
2023/11/09 04:06:01;;;;;;;8.20;5.50;;;;;;;7.93;86.18;101376.21;107575;1253;108561;-63
2023/11/09 04:08:29;;;;;;;9.80;5.50;;;;;;;7.92;86.42;101379.13;107561;1252;99176;-62
2023/11/09 04:10:58;;;;;;;15.80;6.00;;;;;;;7.88;86.13;101382.23;107624;1253;99036;-63
2023/11/09 04:13:26;;;;;;;12.10;5.50;;;;;;;7.83;86.21;101385.02;107628;1251;113272;-63
2023/11/09 04:15:55;;;;;;;9.50;6.00;;;;;;;7.78;86.24;101380.94;107588;1251;108977;-62
2023/11/09 04:18:26;;;;;;;7.00;5.00;;;;;;;7.74;86.45;101387.61;107531;1252;107399;-63
2023/11/09 04:20:55;;;;;;;10.90;5.50;;;;;;;7.72;86.40;101391.68;107571;1251;99176;-62
2023/11/09 04:23:23;;;;;;;15.00;5.70;;;;;;;7.68;86.50;101397.46;107525;1252;99713;-63
2023/11/09 04:25:52;;;;;;;12.80;5.80;;;;;;;7.62;86.58;101398.59;107563;1253;113249;-63
2023/11/09 04:28:20;;;;;;;10.20;6.20;;;;;;;7.60;86.32;101403.89;107683;1251;108364;-63
2023/11/09 04:30:51;;;;;;;11.90;6.20;;;;;;;7.58;86.10;101405.46;107499;1251;107850;-62
2023/11/09 04:33:20;;;;;;;12.60;6.20;;;;;;;7.55;85.84;101406.39;107516;1251;99231;-62
2023/11/09 04:35:48;;;;;;;13.30;6.40;;;;;;;7.50;85.62;101406.70;107614;1254;99191;-62
2023/11/09 04:38:17;;;;;;;9.90;6.10;;;;;;;7.47;85.28;101406.69;107566;1251;113044;-62
2023/11/09 04:40:47;;;;;;;13.80;6.30;;;;;;;7.44;85.27;101407.79;107532;1253;109272;-62
2023/11/09 04:43:17;;;;;;;17.30;7.10;;;;;;;7.39;84.90;101413.29;107626;1251;108157;-62
2023/11/09 04:45:47;;;;;;;13.20;6.70;;;;;;;7.36;84.82;101412.41;107655;1251;99197;-62
2023/11/09 04:48:20;;;;;;;15.90;9.00;;;;;;;7.33;84.65;101412.94;107598;1251;99823;-62
2023/11/09 04:51:00;;;;;;;14.80;7.30;;;;;;;7.29;84.50;101414.66;107598;1254;113381;-62
2023/11/09 04:53:31;;;;;;;13.70;8.50;;;;;;;7.26;84.04;101423.60;107567;1251;109769;-62
2023/11/09 04:56:09;;;;;;;17.50;8.00;;;;;;;7.26;83.89;101423.75;107612;1251;109070;-62
2023/11/09 04:59:01;;;;;;;14.20;8.60;;;;;;;7.29;83.72;101427.69;107518;1251;99173;-61
2023/11/09 05:07:04;;;;;;;17.50;6.80;;;;;;;7.38;83.38;101439.80;107609;1253;108862;-63
2023/11/09 05:09:32;;;;;;;9.70;6.10;;;;;;;7.41;83.22;101445.98;107564;1251;107935;-62
2023/11/09 05:12:00;;;;;;;9.50;7.10;;;;;;;7.44;83.32;101450.28;107511;1252;99433;-62
2023/11/09 05:14:28;;;;;;;15.90;8.20;;;;;;;7.46;83.37;101454.98;107533;1253;99189;-62
2023/11/09 05:16:56;;;;;;;11.10;8.60;;;;;;;7.48;83.51;101457.36;107526;1253;112577;-62
2023/11/09 05:19:25;;;;;;;19.50;7.40;;;;;;;7.49;83.26;101464.39;107569;1251;109631;-63
2023/11/09 05:21:54;;;;;;;14.70;7.40;;;;;;;7.51;83.28;101472.09;107564;1254;107235;-63
2023/11/09 05:24:22;;;;;;;13.30;6.30;;;;;;;7.53;83.30;101472.70;107605;1252;99186;-62
2023/11/09 05:26:51;;;;;;;18.80;6.90;;;;;;;7.55;83.18;101480.28;107508;1252;99756;-62
2023/11/09 05:29:20;;;;;;;13.60;7.10;;;;;;;7.57;82.93;101484.84;107568;1251;113175;-62
2023/11/09 05:31:50;;;;;;;18.10;8.40;;;;;;;7.57;82.79;101492.79;107574;1251;109221;-62
2023/11/09 05:34:18;;;;;;;11.00;6.50;;;;;;;7.59;82.76;101495.89;107560;1253;106765;-62
2023/11/09 05:36:47;;;;;;;18.30;7.90;;;;;;;7.62;82.49;101493.56;107497;1253;99195;-63
2023/11/09 05:39:15;;;;;;;20.40;8.30;;;;;;;7.65;82.67;101496.08;107520;1253;99180;-62
2023/11/09 05:41:43;;;;;;;11.70;7.80;;;;;;;7.68;82.64;101494.08;107540;1253;113175;-61
2023/11/09 05:44:12;;;;;;;13.70;6.30;;;;;;;7.70;82.42;101501.61;107513;1251;109469;-61
2023/11/09 05:46:40;;;;;;;24.90;7.60;;;;;;;7.70;82.14;101511.97;107444;1252;108405;-62
2023/11/09 05:49:10;;;;;;;28.60;11.80;;;;;;;7.73;82.22;101509.47;107446;1253;99177;-61
2023/11/09 05:51:39;;;;;;;13.90;7.60;;;;;;;7.74;81.74;101515.14;107397;1253;99764;-61
2023/11/09 05:54:08;;;;;;;11.50;7.20;;;;;;;7.72;81.13;101517.73;107449;1253;113130;-60
2023/11/09 05:56:37;;;;;;;13.50;5.80;;;;;;;7.66;80.30;101526.48;107439;1253;109712;-61
2023/11/09 05:59:05;;;;;;;12.50;6.10;;;;;;;7.64;80.27;101524.86;107374;1252;106903;-61
2023/11/09 06:01:35;;;;;;;11.00;5.70;;;;;;;7.66;80.24;101527.92;107479;1251;99237;-61
2023/11/09 06:04:04;;;;;;;10.70;6.50;;;;;;;7.71;80.18;101531.02;107477;1251;99035;-62
2023/11/09 06:06:32;;;;;;;9.30;5.40;;;;;;;7.79;80.02;101532.10;107514;1253;113189;-61
2023/11/09 06:09:01;;;;;;;9.30;5.80;;;;;;;7.80;79.75;101536.67;107451;1253;109588;-61
2023/11/09 06:11:31;;;;;;;11.10;5.80;;;;;;;7.79;79.58;101536.19;107412;1255;108098;-61
2023/11/09 06:14:01;;;;;;;8.90;5.70;;;;;;;7.76;79.07;101536.04;107519;1253;99633;-61
2023/11/09 06:16:30;;;;;;;10.70;5.00;;;;;;;7.74;79.20;101536.34;107485;1253;99715;-61
2023/11/09 06:19:01;;;;;;;11.70;6.10;;;;;;;7.76;78.71;101539.98;107539;1251;112159;-61
2023/11/09 06:21:30;;;;;;;10.90;5.40;;;;;;;7.74;78.61;101546.57;107533;1254;109083;-61
2023/11/09 06:23:58;;;;;;;11.10;6.40;;;;;;;7.73;78.52;101543.73;107478;1252;108316;-60
2023/11/09 06:26:27;;;;;;;13.90;7.10;;;;;;;7.77;78.86;101544.52;107461;1253;99173;-60
2023/11/09 06:28:55;;;;;;;13.20;5.80;;;;;;;7.86;79.16;101545.06;107384;1252;99819;-61
2023/11/09 06:31:23;;;;;;;10.20;4.90;;;;;;;7.92;78.69;101545.23;107437;1253;113192;-61
2023/11/09 06:33:54;;;;;;;9.50;5.30;;;;;;;7.94;78.16;101548.27;107602;1251;109730;-62
2023/11/09 06:36:22;;;;;;;9.10;5.70;;;;;;;7.97;78.09;101548.09;107545;1252;107615;-61
2023/11/09 06:38:51;;;;;;;12.00;5.40;;;;;;;8.01;78.02;101548.90;107491;1253;99199;-63
2023/11/09 06:41:20;;;;;;;9.80;5.70;;;;;;;8.05;77.60;101546.39;107626;1253;99819;-62
2023/11/09 06:43:48;;;;;;;14.10;6.30;;;;;;;8.04;76.95;101545.14;107606;1251;113364;-63
2023/11/09 06:46:17;;;;;;;6.90;5.00;;;;;;;8.07;77.09;101548.68;107600;1253;110150;-64
2023/11/09 06:48:46;;;;;;;10.10;7.40;;;;;;;8.07;76.46;101546.04;107566;1251;108117;-62
2023/11/09 06:51:14;;;;;;;14.40;5.30;;;;;;;8.05;76.20;101545.96;107534;1253;99185;-62
2023/11/09 06:53:42;;;;;;;10.90;6.20;;;;;;;8.06;76.24;101547.00;107527;1253;99622;-62
2023/11/09 06:56:11;;;;;;;8.80;4.90;;;;;;;8.09;76.30;101545.33;107533;1253;113048;-62
2023/11/09 06:58:39;;;;;;;9.70;5.70;;;;;;;8.11;75.78;101550.23;107554;1253;110113;-63
2023/11/09 07:01:07;;;;;;;13.10;6.20;;;;;;;8.14;75.83;101549.29;107516;1253;108520;-63
2023/11/09 07:03:35;;;;;;;18.50;10.80;;;;;;;8.18;75.85;101551.36;107494;1253;99191;-63
2023/11/09 07:06:05;;;;;;;15.10;7.10;;;;;;;8.21;75.23;101554.02;107515;1253;99103;-63
2023/11/09 07:08:34;;;;;;;8.80;5.20;;;;;;;8.26;75.15;101555.14;107585;1253;113597;-63
2023/11/09 07:11:03;;;;;;;12.50;5.40;;;;;;;8.32;75.03;101560.85;107542;1256;108480;-63
2023/11/09 07:13:31;;;;;;;10.60;5.30;;;;;;;8.38;74.90;101566.89;107589;1253;108266;-62
2023/11/09 07:15:59;;;;;;;16.00;5.90;;;;;;;8.46;75.07;101569.58;107581;1251;99080;-61
2023/11/09 07:18:28;;;;;;;10.30;5.20;;;;;;;8.55;74.96;101577.70;107623;1254;99294;-63
2023/11/09 07:20:56;;;;;;;7.70;4.80;;;;;;;8.66;74.78;101580.77;107592;1255;113398;-62
2023/11/09 07:23:37;;;;;;;21.50;13.00;;;;;;;8.74;74.10;101585.56;107577;1251;109917;-64
2023/11/09 07:26:06;;;;;;;15.30;6.40;;;;;;;8.83;74.17;101584.48;107609;1251;106976;-63
2023/11/09 07:28:34;;;;;;;9.10;5.60;;;;;;;8.92;73.85;101576.50;107589;1251;99193;-62
2023/11/09 07:31:03;;;;;;;7.90;5.00;;;;;;;9.01;73.60;101581.94;107513;1253;99060;-62
2023/11/09 07:33:32;;;;;;;8.80;5.50;;;;;;;9.09;72.93;101584.45;107569;1253;113168;-62
2023/11/09 07:36:00;;;;;;;11.20;5.30;;;;;;;9.17;72.72;101585.75;107553;1255;109287;-63
2023/11/09 07:38:28;;;;;;;11.50;5.50;;;;;;;9.22;72.22;101584.61;107508;1251;107749;-62
2023/11/09 07:40:57;;;;;;;10.70;5.20;;;;;;;9.25;71.80;101581.91;107572;1251;99303;-62
2023/11/09 07:43:25;;;;;;;8.70;4.20;;;;;;;9.28;71.49;101584.79;107553;1251;99077;-62
2023/11/09 07:45:54;;;;;;;12.10;5.50;;;;;;;9.34;71.69;101584.67;107610;1251;113443;-63
2023/11/09 07:48:24;;;;;;;11.70;6.70;;;;;;;9.45;71.20;101588.80;107555;1252;109237;-62
2023/11/09 07:50:52;;;;;;;11.30;4.90;;;;;;;9.53;70.64;101587.84;107477;1253;108629;-62
2023/11/09 07:53:21;;;;;;;13.00;9.40;;;;;;;9.60;69.94;101588.63;107526;1252;99296;-62
2023/11/09 07:55:50;;;;;;;11.60;6.10;;;;;;;9.70;69.76;101586.27;107580;1253;99060;-61
2023/11/09 07:58:20;;;;;;;14.80;5.00;;;;;;;9.84;70.34;101590.86;107550;1251;112810;-62
2023/11/09 08:00:51;;;;;;;16.70;7.30;;;;;;;10.00;70.63;101588.63;107552;1252;108306;-62
2023/11/09 08:03:20;;;;;;;11.80;5.50;;;;;;;10.15;69.59;101589.27;107534;1252;108317;-61
2023/11/09 08:05:49;;;;;;;12.40;4.80;;;;;;;10.34;69.99;101587.93;107578;1251;99195;-62
2023/11/09 08:08:19;;;;;;;15.30;6.30;;;;;;;10.52;69.28;101588.95;107533;1253;99272;-64
2023/11/09 08:10:47;;;;;;;8.80;4.10;;;;;;;10.70;68.94;101590.98;107559;1253;113140;-62
2023/11/09 08:13:16;;;;;;;12.40;4.60;;;;;;;10.85;68.35;101591.10;107510;1252;109357;-62
2023/11/09 08:15:44;;;;;;;9.40;3.80;;;;;;;10.99;66.39;101594.40;107516;1252;110340;-62
2023/11/09 08:18:14;;;;;;;7.20;3.20;;;;;;;11.12;65.28;101596.59;107506;1252;99256;-62
2023/11/09 08:20:43;;;;;;;6.80;2.70;;;;;;;11.22;64.12;101595.27;107606;1252;99064;-62
2023/11/09 08:23:11;;;;;;;7.40;3.70;;;;;;;11.34;63.90;101599.52;107591;1251;112808;-62
2023/11/09 08:25:39;;;;;;;5.10;2.90;;;;;;;11.42;62.35;101603.91;107587;1255;108932;-63
2023/11/09 08:28:08;;;;;;;10.10;3.40;;;;;;;11.48;61.28;101605.66;107567;1251;107746;-62
2023/11/09 08:30:38;;;;;;;6.20;3.20;;;;;;;11.58;61.20;101606.47;107535;1253;99276;-64
2023/11/09 08:33:09;;;;;;;9.40;3.80;;;;;;;11.72;60.96;101608.42;107568;1251;99714;-62
2023/11/09 08:35:38;;;;;;;6.00;3.00;;;;;;;11.94;61.58;101608.84;107576;1253;112137;-61
2023/11/09 08:38:08;;;;;;;6.90;3.20;;;;;;;12.13;60.38;101609.29;107590;1252;108604;-62
2023/11/09 08:40:38;;;;;;;8.00;2.50;;;;;;;12.42;60.83;101610.32;107659;1251;110935;-62
2023/11/09 08:43:07;;;;;;;8.60;3.00;;;;;;;12.88;59.58;101610.81;107553;1253;99240;-62
2023/11/09 08:45:36;;;;;;;6.00;3.00;;;;;;;13.45;57.67;101607.54;107526;1253;99788;-62
2023/11/09 08:48:05;;;;;;;7.90;2.80;;;;;;;14.18;54.42;101606.89;107577;1253;112608;-62
2023/11/09 08:50:38;;;;;;;4.80;2.40;;;;;;;15.00;54.92;101602.11;107625;1252;108200;-62
2023/11/09 08:53:10;;;;;;;5.50;2.20;;;;;;;15.91;54.05;101604.77;107622;1254;107783;-62
2023/11/09 08:55:39;;;;;;;7.70;2.80;;;;;;;16.64;53.69;101605.03;107641;1252;99288;-62
2023/11/09 08:58:10;;;;;;;6.00;2.60;;;;;;;17.35;52.87;101600.13;107537;1251;99291;-62
2023/11/09 09:00:39;;;;;;;4.70;2.30;;;;;;;18.03;51.02;101600.66;107563;1251;112657;-62
2023/11/09 09:03:08;;;;;;;6.90;2.20;;;;;;;18.52;49.21;101600.81;107591;1251;109373;-62
2023/11/09 09:05:37;;;;;;;3.80;1.90;;;;;;;19.11;49.15;101599.45;107630;1255;108147;-65
2023/11/09 09:08:06;;;;;;;4.30;2.20;;;;;;;19.74;44.33;101603.52;107571;1251;99190;-63
2023/11/09 09:10:38;;;;;;;3.30;2.00;;;;;;;20.04;43.58;101595.89;107656;1251;99073;-63
2023/11/09 09:13:07;;;;;;;2.30;1.60;;;;;;;20.39;42.52;101600.77;107529;1253;113375;-62
2023/11/09 09:15:37;;;;;;;8.20;2.20;;;;;;;20.71;42.07;101604.27;107561;1251;109448;-64
2023/11/09 09:18:09;;;;;;;5.70;1.70;;;;;;;21.20;42.77;101602.08;107536;1253;107095;-63
2023/11/09 09:20:38;;;;;;;6.80;1.90;;;;;;;21.41;38.36;101603.14;107548;1253;99136;-63
2023/11/09 09:23:09;;;;;;;5.70;2.00;;;;;;;21.50;37.42;101603.23;107579;1253;99072;-63
2023/11/09 09:25:38;;;;;;;4.50;1.80;;;;;;;21.27;35.57;101600.28;107576;1253;113242;-62
2023/11/09 09:28:09;;;;;;;2.60;1.60;;;;;;;21.61;39.12;101596.95;107514;1253;109027;-62
2023/11/09 09:30:37;;;;;;;4.20;2.50;;;;;;;21.94;35.96;101599.29;107551;1255;107059;-63
2023/11/09 09:33:07;;;;;;;7.60;1.80;;;;;;;22.17;37.38;101593.80;107554;1251;99163;-62
2023/11/09 09:35:36;;;;;;;3.00;1.50;;;;;;;22.60;34.66;101588.35;107676;1251;99853;-63
2023/11/09 09:38:15;;;;;;;6.00;2.00;;;;;;;22.58;33.94;101589.35;107551;1254;113164;-63
2023/11/09 09:40:47;;;;;;;7.00;1.80;;;;;;;22.20;33.50;101591.51;107641;1253;108334;-63
2023/11/09 09:43:22;;;;;;;3.90;1.70;;;;;;;22.33;33.78;101592.96;107517;1255;108686;-62
2023/11/09 09:45:57;;;;;;;3.40;1.90;;;;;;;22.69;35.15;101586.93;107592;1251;99078;-63
2023/11/09 09:48:30;;;;;;;11.20;2.20;;;;;;;23.31;35.66;101585.98;107613;1251;99080;-63
2023/11/09 09:50:58;;;;;;;4.90;2.20;;;;;;;23.84;33.90;101584.92;107533;1253;112562;-64
2023/11/09 09:53:30;;;;;;;5.10;1.90;;;;;;;24.28;33.62;101587.89;107644;1252;109820;-63
2023/11/09 09:56:03;;;;;;;5.30;2.50;;;;;;;24.53;33.53;101592.45;107410;1253;107680;-64
2023/11/09 09:58:34;;;;;;;4.30;1.80;;;;;;;24.75;32.19;101589.84;107552;1254;99195;-63
2023/11/09 10:01:03;;;;;;;5.60;1.80;;;;;;;24.68;33.37;101591.05;107667;1251;99194;-63
2023/11/09 10:03:33;;;;;;;3.20;1.50;;;;;;;24.27;33.30;101592.95;107581;1253;110605;-62
2023/11/09 10:06:05;;;;;;;3.80;2.20;;;;;;;24.46;32.62;101590.75;107662;1253;109284;-63
2023/11/09 10:08:36;;;;;;;4.90;1.90;;;;;;;24.74;31.66;101589.77;107594;1255;108781;-63
2023/11/09 10:11:04;;;;;;;6.10;2.50;;;;;;;25.01;31.37;101584.45;107241;1251;539696;-63
2023/11/09 10:13:35;;;;;;;2.20;1.50;;;;;;;25.26;30.09;101582.09;107592;1253;99151;-62
2023/11/09 10:16:05;;;;;;;4.60;1.60;;;;;;;25.48;30.48;101584.53;107612;1255;112557;-64
2023/11/09 10:18:33;;;;;;;8.10;2.60;;;;;;;25.60;30.32;101583.98;107629;1254;110045;-62
2023/11/09 10:21:03;;;;;;;4.50;1.90;;;;;;;25.67;29.51;101580.41;107620;1256;108704;-63
2023/11/09 10:23:32;;;;;;;8.10;2.00;;;;;;;26.09;27.74;101574.00;107600;1253;99199;-63
2023/11/09 10:26:02;;;;;;;5.70;1.90;;;;;;;26.10;29.28;101576.07;107581;1254;99886;-63
2023/11/09 10:28:34;;;;;;;6.60;1.50;;;;;;;26.50;28.92;101574.85;107598;1251;113475;-62
2023/11/09 10:31:02;;;;;;;2.20;1.40;;;;;;;26.83;28.90;101573.86;107551;1253;109094;-63
2023/11/09 10:33:35;;;;;;;3.10;1.50;;;;;;;27.21;27.43;101571.09;107575;1253;107010;-63
2023/11/09 10:36:04;;;;;;;;;;;;;;;27.28;28.00;101573.04;107596;1253;99093;-64
2023/11/09 10:38:33;;;;;;;3.30;1.50;;;;;;;27.53;28.24;101570.20;107637;1255;99185;-64
2023/11/09 10:41:05;;;;;;;9.70;1.60;;;;;;;27.87;27.23;101567.83;107559;1256;113395;-63
2023/11/09 10:43:59;;;;;;;5.00;2.00;;;;;;;28.04;26.26;101565.36;107520;1256;108991;-62
2023/11/09 10:46:37;;;;;;;7.70;1.80;;;;;;;27.81;25.39;101566.66;107588;1255;108513;-62
2023/11/09 10:49:08;;;;;;;3.00;1.50;;;;;;;27.77;25.69;101567.33;107557;1253;99209;-62
2023/11/09 10:51:37;;;;;;;3.70;1.70;;;;;;;27.55;25.15;101570.59;107586;1253;100886;-63
2023/11/09 10:54:08;;;;;;;4.90;1.90;;;;;;;27.20;24.66;101563.65;107623;1253;112825;-63
2023/11/09 10:56:38;;;;;;;3.50;1.50;;;;;;;27.08;25.31;101569.09;107522;1255;109155;-62
2023/11/09 10:59:08;;;;;;;2.50;1.40;;;;;;;26.56;23.63;101570.85;107515;1254;107729;-63
2023/11/09 11:01:41;;;;;;;4.10;1.40;;;;;;;26.00;24.50;101573.40;107518;1256;99194;-62
2023/11/09 11:04:12;;;;;;;2.60;1.10;;;;;;;25.93;25.19;101573.30;107555;1253;99079;-60
2023/11/09 11:06:51;;;;;;;5.90;1.50;;;;;;;25.87;25.50;101570.42;107618;1253;113473;-63
2023/11/09 11:09:26;;;;;;;3.60;1.40;;;;;;;26.20;25.66;101576.83;107575;1251;108702;-62
2023/11/09 11:12:02;;;;;;;3.70;1.70;;;;;;;26.49;24.97;101572.27;107534;1252;108197;-62
2023/11/09 11:14:35;;;;;;;3.60;1.20;;;;;;;26.16;24.70;101574.73;107571;1256;99192;-63
2023/11/09 11:17:31;;;;;;;2.20;1.20;;;;;;;26.03;25.17;101571.20;107599;1255;99082;-62
2023/11/09 11:20:42;;;;;;;6.70;1.70;;;;;;;25.46;25.62;101568.91;107599;1251;112891;-62
2023/11/09 11:23:40;;;;;;;2.90;1.50;;;;;;;25.48;26.52;101564.36;107313;1255;109277;-63
2023/11/09 11:26:14;;;;;;;4.00;1.10;;;;;;;25.50;27.01;101563.21;107412;1253;108019;-62
2023/11/09 11:28:42;;;;;;;2.10;1.30;;;;;;;25.53;26.38;101563.67;107559;1255;99183;-64
2023/11/09 11:31:14;;;;;;;2.20;1.10;;;;;;;24.92;24.90;101564.45;107585;1251;99207;-62